KSPG

Albert Whitted Airport

St Petersburg, Florida, USA
METAR KSPG 190453Z AUTO 11010KT 10SM CLR 28/24 A2994 RMK AO2 WSHFT 0403 SLP140 T02780244 403330278
Observed Flight Rules
Sep-19 @ 04:53 UTC (21 minutes ago) Visual Flight Rules
Wind Visibility Clouds
110° at 10 knots 10 miles
  • Clear skies
Temperatures Readings
Current 28°C / 82°F
Dewpoint 24°C / 75°F
Humidity 79%
Altimeter 29.94" Hg
Pressure 1014 hPa
Elevation 2
METAR KSPG 190453Z AUTO 11010KT 10SM CLR 28/24 A2994 RMK AO2 WSHFT 0403 SLP140 T02780244 403330278
Observed Flight Rules
Sep-19 @ 04:53 UTC
(21 minutes ago)
VFR
Wind Visibility
110° at 10 knots 10 miles
Clouds
  • Clear skies
Temperature Dewpoint
28°C / 82°F 24°C / 75°F
Humidity Altimeter Pressure
79% 29.94" Hg 1014 hPa